sensor_id;sensor_type;location;lat;lon;timestamp;pressure;altitude;pressure_sealevel;temperature;humidity
60307;BME280;46155;52.364;6.580;2024-02-23T04:02:54;98590.56;;;4.18;100.00
60307;BME280;46155;52.364;6.580;2024-02-23T04:05:19;98591.75;;;4.24;100.00
60307;BME280;46155;52.364;6.580;2024-02-23T04:07:45;98594.94;;;4.19;100.00
60307;BME280;46155;52.364;6.580;2024-02-23T04:10:10;98603.75;;;4.22;100.00
60307;BME280;46155;52.364;6.580;2024-02-23T04:15:26;98608.88;;;4.21;100.00
60307;BME280;46155;52.364;6.580;2024-02-23T04:17:52;98610.81;;;4.25;100.00
60307;BME280;46155;52.364;6.580;2024-02-23T04:20:17;98616.16;;;4.28;100.00
60307;BME280;46155;52.364;6.580;2024-02-23T04:22:42;98623.06;;;4.27;100.00
60307;BME280;46155;52.364;6.580;2024-02-23T04:25:08;98626.75;;;4.31;100.00
60307;BME280;46155;52.364;6.580;2024-02-23T04:27:33;98627.53;;;4.30;100.00
60307;BME280;46155;52.364;6.580;2024-02-23T04:29:59;98640.69;;;4.33;100.00
60307;BME280;46155;52.364;6.580;2024-02-23T04:32:24;98623.16;;;4.29;100.00
60307;BME280;46155;52.364;6.580;2024-02-23T04:34:49;98626.88;;;4.34;100.00
60307;BME280;46155;52.364;6.580;2024-02-23T04:37:15;98634.53;;;4.31;100.00
60307;BME280;46155;52.364;6.580;2024-02-23T04:39:40;98642.31;;;4.31;100.00
60307;BME280;46155;52.364;6.580;2024-02-23T04:42:07;98650.13;;;4.31;100.00
60307;BME280;46155;52.364;6.580;2024-02-23T04:44:34;98640.13;;;4.22;100.00
60307;BME280;46155;52.364;6.580;2024-02-23T04:46:59;98649.06;;;4.27;100.00
60307;BME280;46155;52.364;6.580;2024-02-23T04:49:24;98649.84;;;4.26;100.00
60307;BME280;46155;52.364;6.580;2024-02-23T04:51:50;98656.91;;;4.29;100.00
60307;BME280;46155;52.364;6.580;2024-02-23T04:54:15;98655.53;;;4.36;100.00
60307;BME280;46155;52.364;6.580;2024-02-23T04:56:40;98647.91;;;4.22;100.00
60307;BME280;46155;52.364;6.580;2024-02-23T04:59:06;98673.78;;;4.37;100.00
60307;BME280;46155;52.364;6.580;2024-02-23T05:01:35;98666.81;;;4.36;100.00
60307;BME280;46155;52.364;6.580;2024-02-23T05:04:01;98672.00;;;4.36;100.00
60307;BME280;46155;52.364;6.580;2024-02-23T05:06:26;98669.19;;;4.31;100.00
60307;BME280;46155;52.364;6.580;2024-02-23T05:08:52;98675.25;;;4.32;100.00
60307;BME280;46155;52.364;6.580;2024-02-23T05:11:17;98678.78;;;4.33;100.00
60307;BME280;46155;52.364;6.580;2024-02-23T05:13:42;98664.72;;;4.29;100.00
60307;BME280;46155;52.364;6.580;2024-02-23T05:16:07;98675.97;;;4.29;100.00
60307;BME280;46155;52.364;6.580;2024-02-23T05:18:33;98681.38;;;4.33;100.00
60307;BME280;46155;52.364;6.580;2024-02-23T05:20:58;98675.09;;;4.29;100.00
60307;BME280;46155;52.364;6.580;2024-02-23T05:23:25;98678.69;;;4.31;100.00
60307;BME280;46155;52.364;6.580;2024-02-23T05:25:50;98679.00;;;4.37;100.00
60307;BME280;46155;52.364;6.580;2024-02-23T05:28:15;98686.72;;;4.36;100.00
60307;BME280;46155;52.364;6.580;2024-02-23T05:30:41;98679.41;;;4.28;100.00
60307;BME280;46155;52.364;6.580;2024-02-23T05:33:07;98681.94;;;4.27;100.00
60307;BME280;46155;52.364;6.580;2024-02-23T05:35:33;98683.56;;;4.25;100.00
60307;BME280;46155;52.364;6.580;2024-02-23T05:37:58;98680.00;;;4.23;100.00
60307;BME280;46155;52.364;6.580;2024-02-23T05:40:24;98686.06;;;4.23;100.00
60307;BME280;46155;52.364;6.580;2024-02-23T05:42:49;98687.13;;;4.27;100.00
60307;BME280;46155;52.364;6.580;2024-02-23T05:45:14;98683.63;;;4.26;100.00
60307;BME280;46155;52.364;6.580;2024-02-23T05:47:40;98684.47;;;4.25;100.00
60307;BME280;46155;52.364;6.580;2024-02-23T05:50:08;98685.50;;;4.29;100.00
60307;BME280;46155;52.364;6.580;2024-02-23T05:52:34;98681.75;;;4.24;100.00
60307;BME280;46155;52.364;6.580;2024-02-23T05:55:00;98691.69;;;4.31;100.00
60307;BME280;46155;52.364;6.580;2024-02-23T05:57:26;98684.63;;;4.28;100.00
60307;BME280;46155;52.364;6.580;2024-02-23T05:59:52;98688.91;;;4.28;100.00
60307;BME280;46155;52.364;6.580;2024-02-23T06:02:17;98698.78;;;4.35;100.00
60307;BME280;46155;52.364;6.580;2024-02-23T06:04:43;98691.56;;;4.29;100.00
60307;BME280;46155;52.364;6.580;2024-02-23T06:07:08;98689.09;;;4.31;100.00
60307;BME280;46155;52.364;6.580;2024-02-23T06:09:34;98696.88;;;4.31;100.00
60307;BME280;46155;52.364;6.580;2024-02-23T06:11:59;98701.50;;;4.71;100.00
60307;BME280;46155;52.364;6.580;2024-02-23T06:14:25;98691.97;;;4.54;100.00
60307;BME280;46155;52.364;6.580;2024-02-23T06:16:50;98709.47;;;4.58;100.00
60307;BME280;46155;52.364;6.580;2024-02-23T06:19:15;98711.34;;;4.60;100.00
60307;BME280;46155;52.364;6.580;2024-02-23T06:21:41;98712.00;;;4.56;100.00
60307;BME280;46155;52.364;6.580;2024-02-23T06:24:06;98717.94;;;4.54;100.00
60307;BME280;46155;52.364;6.580;2024-02-23T06:26:33;98706.25;;;4.45;100.00
60307;BME280;46155;52.364;6.580;2024-02-23T06:28:58;98712.41;;;4.47;100.00
60307;BME280;46155;52.364;6.580;2024-02-23T06:31:24;98720.53;;;4.54;100.00
60307;BME280;46155;52.364;6.580;2024-02-23T06:33:49;98726.41;;;4.50;100.00
60307;BME280;46155;52.364;6.580;2024-02-23T06:36:16;98721.34;;;4.53;100.00
60307;BME280;46155;52.364;6.580;2024-02-23T06:38:41;98732.78;;;4.56;100.00
60307;BME280;46155;52.364;6.580;2024-02-23T06:41:07;98738.63;;;4.52;100.00
60307;BME280;46155;52.364;6.580;2024-02-23T06:43:35;98730.75;;;4.51;100.00
60307;BME280;46155;52.364;6.580;2024-02-23T06:46:07;98729.22;;;4.54;100.00
60307;BME280;46155;52.364;6.580;2024-02-23T06:48:33;98729.94;;;4.52;100.00
60307;BME280;46155;52.364;6.580;2024-02-23T06:50:59;98722.16;;;4.52;100.00
60307;BME280;46155;52.364;6.580;2024-02-23T06:53:24;98724.03;;;4.54;100.00
60307;BME280;46155;52.364;6.580;2024-02-23T06:55:50;98730.25;;;4.58;100.00
60307;BME280;46155;52.364;6.580;2024-02-23T06:58:15;98744.09;;;4.57;100.00
60307;BME280;46155;52.364;6.580;2024-02-23T07:00:41;98745.69;;;4.55;100.00
60307;BME280;46155;52.364;6.580;2024-02-23T07:03:07;98745.19;;;4.62;100.00
60307;BME280;46155;52.364;6.580;2024-02-23T07:05:32;98744.09;;;4.57;100.00
60307;BME280;46155;52.364;6.580;2024-02-23T07:07:57;98741.56;;;4.58;100.00
60307;BME280;46155;52.364;6.580;2024-02-23T07:10:23;98737.41;;;4.62;100.00
60307;BME280;46155;52.364;6.580;2024-02-23T07:12:50;98745.19;;;4.62;100.00
60307;BME280;46155;52.364;6.580;2024-02-23T07:15:18;98745.28;;;4.63;100.00
60307;BME280;46155;52.364;6.580;2024-02-23T07:17:44;98749.81;;;4.68;100.00
60307;BME280;46155;52.364;6.580;2024-02-23T07:20:10;98743.66;;;4.65;100.00
60307;BME280;46155;52.364;6.580;2024-02-23T07:22:36;98737.41;;;4.62;100.00
60307;BME280;46155;52.364;6.580;2024-02-23T07:25:01;98743.50;;;4.62;100.00
60307;BME280;46155;52.364;6.580;2024-02-23T07:27:29;98747.41;;;4.71;100.00
60307;BME280;46155;52.364;6.580;2024-02-23T07:29:54;98743.22;;;4.74;100.00
60307;BME280;46155;52.364;6.580;2024-02-23T07:32:20;98736.88;;;4.69;100.00
60307;BME280;46155;52.364;6.580;2024-02-23T07:34:45;98739.81;;;4.75;100.00
60307;BME280;46155;52.364;6.580;2024-02-23T07:37:10;98741.53;;;4.93;100.00
60307;BME280;46155;52.364;6.580;2024-02-23T07:39:35;98743.34;;;4.94;100.00
60307;BME280;46155;52.364;6.580;2024-02-23T07:42:01;98738.13;;;4.94;100.00
60307;BME280;46155;52.364;6.580;2024-02-23T07:44:27;98737.47;;;4.98;100.00
60307;BME280;46155;52.364;6.580;2024-02-23T07:46:53;98734.94;;;4.99;100.00
60307;BME280;46155;52.364;6.580;2024-02-23T07:49:20;98743.03;;;5.06;100.00
60307;BME280;46155;52.364;6.580;2024-02-23T07:51:45;98733.56;;;5.06;100.00
60307;BME280;46155;52.364;6.580;2024-02-23T07:54:10;98741.88;;;5.17;100.00
60307;BME280;46155;52.364;6.580;2024-02-23T07:56:36;98725.75;;;5.06;100.00
60307;BME280;46155;52.364;6.580;2024-02-23T07:59:01;98739.50;;;5.22;100.00
60307;BME280;46155;52.364;6.580;2024-02-23T08:01:35;98723.06;;;5.23;100.00
60307;BME280;46155;52.364;6.580;2024-02-23T08:04:01;98725.53;;;5.20;100.00
60307;BME280;46155;52.364;6.580;2024-02-23T08:06:26;98727.16;;;5.35;100.00
60307;BME280;46155;52.364;6.580;2024-02-23T08:08:51;98740.59;;;5.27;100.00
60307;BME280;46155;52.364;6.580;2024-02-23T08:11:19;98740.59;;;5.27;100.00
60307;BME280;46155;52.364;6.580;2024-02-23T08:13:44;98745.00;;;5.28;100.00
60307;BME280;46155;52.364;6.580;2024-02-23T08:16:09;98741.06;;;5.36;100.00
60307;BME280;46155;52.364;6.580;2024-02-23T08:18:35;98751.63;;;5.39;100.00
60307;BME280;46155;52.364;6.580;2024-02-23T08:21:01;98738.59;;;5.39;100.00
60307;BME280;46155;52.364;6.580;2024-02-23T08:23:28;98734.06;;;5.53;100.00
60307;BME280;46155;52.364;6.580;2024-02-23T08:25:55;98734.66;;;5.47;100.00
60307;BME280;46155;52.364;6.580;2024-02-23T08:28:22;98723.88;;;5.58;100.00
60307;BME280;46155;52.364;6.580;2024-02-23T08:30:47;98739.53;;;5.77;100.00
60307;BME280;46155;52.364;6.580;2024-02-23T08:33:13;98727.47;;;5.97;100.00
60307;BME280;46155;52.364;6.580;2024-02-23T08:35:38;98726.22;;;6.09;100.00
60307;BME280;46155;52.364;6.580;2024-02-23T08:38:04;98720.03;;;6.26;100.00
60307;BME280;46155;52.364;6.580;2024-02-23T08:40:29;98713.72;;;6.41;100.00
60307;BME280;46155;52.364;6.580;2024-02-23T08:42:55;98709.06;;;6.74;100.00
60307;BME280;46155;52.364;6.580;2024-02-23T08:45:20;98719.75;;;6.80;100.00
60307;BME280;46155;52.364;6.580;2024-02-23T08:47:45;98696.47;;;6.64;100.00
60307;BME280;46155;52.364;6.580;2024-02-23T08:50:11;98723.13;;;6.57;100.00
60307;BME280;46155;52.364;6.580;2024-02-23T08:52:36;98710.84;;;6.54;100.00
60307;BME280;46155;52.364;6.580;2024-02-23T08:55:01;98700.28;;;6.51;100.00
60307;BME280;46155;52.364;6.580;2024-02-23T08:57:27;98702.25;;;6.57;100.00
60307;BME280;46155;52.364;6.580;2024-02-23T08:59:53;98680.00;;;6.65;100.00
60307;BME280;46155;52.364;6.580;2024-02-23T09:02:18;98703.16;;;6.78;100.00
60307;BME280;46155;52.364;6.580;2024-02-23T09:04:44;98687.19;;;6.70;100.00
60307;BME280;46155;52.364;6.580;2024-02-23T09:07:11;98697.75;;;6.74;100.00
60307;BME280;46155;52.364;6.580;2024-02-23T09:09:36;98704.91;;;6.78;100.00
60307;BME280;46155;52.364;6.580;2024-02-23T09:12:01;98701.19;;;6.72;100.00
60307;BME280;46155;52.364;6.580;2024-02-23T09:14:27;98710.59;;;6.69;100.00
60307;BME280;46155;52.364;6.580;2024-02-23T09:16:52;98712.94;;;6.63;100.00
60307;BME280;46155;52.364;6.580;2024-02-23T09:19:18;98699.59;;;6.55;100.00
60307;BME280;46155;52.364;6.580;2024-02-23T09:21:44;98703.34;;;6.62;100.00
60307;BME280;46155;52.364;6.580;2024-02-23T09:24:10;98701.81;;;6.67;100.00
60307;BME280;46155;52.364;6.580;2024-02-23T09:26:35;98692.03;;;6.61;100.00
60307;BME280;46155;52.364;6.580;2024-02-23T09:29:00;98694.69;;;6.63;100.00
60307;BME280;46155;52.364;6.580;2024-02-23T09:31:25;98692.72;;;6.78;100.00
60307;BME280;46155;52.364;6.580;2024-02-23T09:33:55;98703.59;;;7.10;100.00
60307;BME280;46155;52.364;6.580;2024-02-23T09:36:21;98713.78;;;7.04;100.00
60307;BME280;46155;52.364;6.580;2024-02-23T09:38:47;98713.16;;;6.88;100.00
60307;BME280;46155;52.364;6.580;2024-02-23T09:41:20;98705.78;;;6.78;100.00
60307;BME280;46155;52.364;6.580;2024-02-23T09:43:47;98719.75;;;6.80;100.00
60307;BME280;46155;52.364;6.580;2024-02-23T09:46:14;98716.59;;;6.66;100.00
60307;BME280;46155;52.364;6.580;2024-02-23T09:48:41;98712.63;;;6.55;100.00
60307;BME280;46155;52.364;6.580;2024-02-23T09:51:07;98708.28;;;6.55;100.00
60307;BME280;46155;52.364;6.580;2024-02-23T09:53:37;98730.03;;;6.56;100.00
60307;BME280;46155;52.364;6.580;2024-02-23T09:56:03;98715.16;;;6.53;100.00
60307;BME280;46155;52.364;6.580;2024-02-23T09:58:30;98715.44;;;6.60;100.00
60307;BME280;46155;52.364;6.580;2024-02-23T10:00:59;98720.00;;;6.65;100.00
60307;BME280;46155;52.364;6.580;2024-02-23T10:03:27;98729.94;;;6.74;100.00
60307;BME280;46155;52.364;6.580;2024-02-23T10:05:55;98717.72;;;6.73;100.00
60307;BME280;46155;52.364;6.580;2024-02-23T10:08:21;98722.69;;;6.67;100.00
60307;BME280;46155;52.364;6.580;2024-02-23T10:10:46;98725.03;;;6.61;100.00
60307;BME280;46155;52.364;6.580;2024-02-23T10:13:12;98723.25;;;6.60;100.00
60307;BME280;46155;52.364;6.580;2024-02-23T10:15:37;98712.41;;;6.50;100.00
60307;BME280;46155;52.364;6.580;2024-02-23T10:18:04;98734.09;;;6.49;100.00
60307;BME280;46155;52.364;6.580;2024-02-23T10:20:29;98732.31;;;6.48;100.00
60307;BME280;46155;52.364;6.580;2024-02-23T10:22:54;98722.16;;;6.54;100.00
60307;BME280;46155;52.364;6.580;2024-02-23T10:25:20;98729.84;;;6.51;100.00
60307;BME280;46155;52.364;6.580;2024-02-23T10:27:45;98731.44;;;6.48;100.00
60307;BME280;46155;52.364;6.580;2024-02-23T10:30:13;98749.06;;;6.53;100.00
60307;BME280;46155;52.364;6.580;2024-02-23T10:32:40;98739.31;;;6.49;100.00
60307;BME280;46155;52.364;6.580;2024-02-23T10:35:10;98750.56;;;6.48;100.00
60307;BME280;46155;52.364;6.580;2024-02-23T10:37:35;98748.22;;;6.54;100.00
60307;BME280;46155;52.364;6.580;2024-02-23T10:40:01;98751.50;;;6.50;100.00
60307;BME280;46155;52.364;6.580;2024-02-23T10:42:33;98756.03;;;6.54;100.00
60307;BME280;46155;52.364;6.580;2024-02-23T10:44:59;98763.72;;;6.51;100.00
60307;BME280;46155;52.364;6.580;2024-02-23T10:47:26;98758.38;;;6.48;100.00
60307;BME280;46155;52.364;6.580;2024-02-23T10:49:52;98756.41;;;6.43;100.00
60307;BME280;46155;52.364;6.580;2024-02-23T10:52:18;98761.69;;;6.44;100.00
60307;BME280;46155;52.364;6.580;2024-02-23T10:54:46;98753.31;;;6.51;100.00
60307;BME280;46155;52.364;6.580;2024-02-23T10:57:12;98750.25;;;6.62;100.00
60307;BME280;46155;52.364;6.580;2024-02-23T10:59:38;98751.19;;;6.62;100.00
60307;BME280;46155;52.364;6.580;2024-02-23T11:02:05;98753.38;;;6.53;100.00
60307;BME280;46155;52.364;6.580;2024-02-23T11:04:31;98764.09;;;6.59;100.00
60307;BME280;46155;52.364;6.580;2024-02-23T11:06:57;98763.22;;;6.60;100.00
60307;BME280;46155;52.364;6.580;2024-02-23T11:09:24;98764.28;;;6.64;100.00
60307;BME280;46155;52.364;6.580;2024-02-23T11:11:57;98765.66;;;6.55;100.00
60307;BME280;46155;52.364;6.580;2024-02-23T11:14:32;98781.34;;;6.37;100.00
60307;BME280;46155;52.364;6.580;2024-02-23T11:16:59;98780.47;;;6.37;100.00
60307;BME280;46155;52.364;6.580;2024-02-23T11:19:36;98795.84;;;6.31;100.00
60307;BME280;46155;52.364;6.580;2024-02-23T11:22:02;98786.91;;;6.26;100.00
60307;BME280;46155;52.364;6.580;2024-02-23T11:24:29;98799.13;;;6.27;100.00
60307;BME280;46155;52.364;6.580;2024-02-23T11:26:59;98790.28;;;6.23;100.00
60307;BME280;46155;52.364;6.580;2024-02-23T11:29:26;98798.97;;;6.24;100.00
60307;BME280;46155;52.364;6.580;2024-02-23T11:31:57;98806.44;;;6.16;100.00
60307;BME280;46155;52.364;6.580;2024-02-23T11:34:27;98809.47;;;6.06;100.00
60307;BME280;46155;52.364;6.580;2024-02-23T11:36:53;98811.69;;;5.98;100.00
60307;BME280;46155;52.364;6.580;2024-02-23T11:39:19;98806.84;;;5.88;100.00
60307;BME280;46155;52.364;6.580;2024-02-23T11:41:48;98798.06;;;5.85;100.00
60307;BME280;46155;52.364;6.580;2024-02-23T11:44:16;98799.03;;;5.88;100.00
60307;BME280;46155;52.364;6.580;2024-02-23T11:46:46;98802.88;;;5.96;100.00
60307;BME280;46155;52.364;6.580;2024-02-23T11:49:12;98809.31;;;6.02;100.00
60307;BME280;46155;52.364;6.580;2024-02-23T11:51:37;98803.06;;;5.99;100.00
60307;BME280;46155;52.364;6.580;2024-02-23T11:54:03;98806.78;;;6.04;100.00
60307;BME280;46155;52.364;6.580;2024-02-23T11:56:29;98792.47;;;5.96;100.00
60307;BME280;46155;52.364;6.580;2024-02-23T11:58:54;98786.06;;;5.89;100.00
60307;BME280;46155;52.364;6.580;2024-02-23T12:01:20;98804.09;;;6.02;100.00
60307;BME280;46155;52.364;6.580;2024-02-23T12:03:46;98799.91;;;6.06;100.00
60307;BME280;46155;52.364;6.580;2024-02-23T12:06:11;98797.25;;;6.05;100.00
60307;BME280;46155;52.364;6.580;2024-02-23T12:08:37;98796.50;;;6.07;100.00
60307;BME280;46155;52.364;6.580;2024-02-23T12:11:07;98799.31;;;6.12;100.00
60307;BME280;46155;52.364;6.580;2024-02-23T12:13:34;98793.91;;;6.07;100.00
60307;BME280;46155;52.364;6.580;2024-02-23T12:16:00;98810.06;;;6.00;100.00
60307;BME280;46155;52.364;6.580;2024-02-23T12:18:25;98797.25;;;6.05;100.00
60307;BME280;46155;52.364;6.580;2024-02-23T12:21:00;98810.41;;;6.08;100.00
60307;BME280;46155;52.364;6.580;2024-02-23T12:23:45;98812.88;;;6.05;100.00
60307;BME280;46155;52.364;6.580;2024-02-23T12:26:12;98812.00;;;6.04;100.00
60307;BME280;46155;52.364;6.580;2024-02-23T12:28:38;98816.59;;;6.10;100.00
60307;BME280;46155;52.364;6.580;2024-02-23T12:31:04;98816.72;;;6.13;100.00
60307;BME280;46155;52.364;6.580;2024-02-23T12:33:37;98824.75;;;6.17;100.00
60307;BME280;46155;52.364;6.580;2024-02-23T12:36:05;98827.63;;;6.24;100.00
60307;BME280;46155;52.364;6.580;2024-02-23T12:38:31;98833.16;;;6.30;100.00
60307;BME280;46155;52.364;6.580;2024-02-23T12:40:56;98831.56;;;6.33;100.00
60307;BME280;46155;52.364;6.580;2024-02-23T12:43:22;98836.84;;;6.35;100.00
60307;BME280;46155;52.364;6.580;2024-02-23T12:45:50;98839.59;;;6.38;100.00
60307;BME280;46155;52.364;6.580;2024-02-23T12:48:16;98829.59;;;6.47;100.00
60307;BME280;46155;52.364;6.580;2024-02-23T12:50:42;98831.38;;;6.68;100.00
60307;BME280;46155;52.364;6.580;2024-02-23T12:53:35;98840.34;;;6.75;100.00
60307;BME280;46155;52.364;6.580;2024-02-23T12:58:27;98836.72;;;6.71;100.00
60307;BME280;46155;52.364;6.580;2024-02-23T13:00:53;98831.03;;;6.60;100.00
60307;BME280;46155;52.364;6.580;2024-02-23T13:03:18;98837.16;;;6.61;100.00
60307;BME280;46155;52.364;6.580;2024-02-23T13:05:43;98844.25;;;6.65;100.00
60307;BME280;46155;52.364;6.580;2024-02-23T13:08:09;98838.91;;;6.62;100.00
60307;BME280;46155;52.364;6.580;2024-02-23T13:10:34;98845.16;;;6.65;100.00
60307;BME280;46155;52.364;6.580;2024-02-23T13:13:00;98846.88;;;6.65;100.00
60307;BME280;46155;52.364;6.580;2024-02-23T13:15:25;98851.13;;;6.63;100.00
60307;BME280;46155;52.364;6.580;2024-02-23T13:17:51;98841.88;;;6.69;100.00
60307;BME280;46155;52.364;6.580;2024-02-23T13:20:16;98844.56;;;6.71;100.00
60307;BME280;46155;52.364;6.580;2024-02-23T13:22:41;98841.25;;;6.75;100.00
60307;BME280;46155;52.364;6.580;2024-02-23T13:25:06;98837.66;;;6.73;100.00
60307;BME280;46155;52.364;6.580;2024-02-23T13:27:32;98842.81;;;6.71;100.00
60307;BME280;46155;52.364;6.580;2024-02-23T13:29:57;98836.78;;;6.72;100.00
60307;BME280;46155;52.364;6.580;2024-02-23T13:32:22;98861.38;;;6.78;100.00
60307;BME280;46155;52.364;6.580;2024-02-23T13:34:48;98853.19;;;6.89;100.00
60307;BME280;46155;52.364;6.580;2024-02-23T13:37:17;98849.34;;;7.01;100.00
60307;BME280;46155;52.364;6.580;2024-02-23T13:39:42;98856.84;;;7.14;100.00
60307;BME280;46155;52.364;6.580;2024-02-23T13:42:08;98858.13;;;7.24;100.00
60307;BME280;46155;52.364;6.580;2024-02-23T13:44:35;98867.81;;;7.27;100.00
60307;BME280;46155;52.364;6.580;2024-02-23T13:47:00;98882.84;;;7.32;100.00
60307;BME280;46155;52.364;6.580;2024-02-23T13:49:25;98876.00;;;7.34;100.00
60307;BME280;46155;52.364;6.580;2024-02-23T13:51:51;98880.13;;;7.29;100.00
60307;BME280;46155;52.364;6.580;2024-02-23T13:54:16;98880.94;;;7.28;100.00
60307;BME280;46155;52.364;6.580;2024-02-23T13:56:41;98880.06;;;7.28;100.00
60307;BME280;46155;52.364;6.580;2024-02-23T13:59:07;98886.91;;;7.26;100.00
60307;BME280;46155;52.364;6.580;2024-02-23T14:01:32;98873.72;;;7.22;100.00
60307;BME280;46155;52.364;6.580;2024-02-23T14:03:57;98880.63;;;7.20;100.00
60307;BME280;46155;52.364;6.580;2024-02-23T14:06:22;98875.97;;;7.13;100.00
60307;BME280;46155;52.364;6.580;2024-02-23T14:08:49;98874.81;;;7.06;100.00
60307;BME280;46155;52.364;6.580;2024-02-23T14:11:14;98884.63;;;7.12;100.00
60307;BME280;46155;52.364;6.580;2024-02-23T14:13:40;98891.94;;;7.01;100.00
60307;BME280;46155;52.364;6.580;2024-02-23T14:16:05;98885.09;;;7.03;100.00
60307;BME280;46155;52.364;6.580;2024-02-23T14:18:32;98885.72;;;6.98;100.00
60307;BME280;46155;52.364;6.580;2024-02-23T14:21:02;98880.09;;;6.88;100.00
60307;BME280;46155;52.364;6.580;2024-02-23T14:23:27;98881.88;;;6.89;100.00
60307;BME280;46155;52.364;6.580;2024-02-23T14:25:52;98885.31;;;6.88;100.00
60307;BME280;46155;52.364;6.580;2024-02-23T14:28:18;98880.84;;;6.86;100.00
60307;BME280;46155;52.364;6.580;2024-02-23T14:30:43;98890.53;;;6.88;100.00
60307;BME280;46155;52.364;6.580;2024-02-23T14:33:08;98896.84;;;6.94;100.00
60307;BME280;46155;52.364;6.580;2024-02-23T14:35:34;98895.19;;;6.96;100.00
60307;BME280;46155;52.364;6.580;2024-02-23T14:37:59;98899.53;;;6.95;100.00
60307;BME280;46155;52.364;6.580;2024-02-23T14:40:24;98890.81;;;6.95;100.00
60307;BME280;46155;52.364;6.580;2024-02-23T14:42:49;98888.91;;;6.91;100.00
60307;BME280;46155;52.364;6.580;2024-02-23T14:45:15;98897.66;;;6.93;100.00
60307;BME280;46155;52.364;6.580;2024-02-23T14:47:42;98894.38;;;6.97;100.00
60307;BME280;46155;52.364;6.580;2024-02-23T14:50:10;98901.16;;;6.93;100.00
60307;BME280;46155;52.364;6.580;2024-02-23T14:52:35;98899.59;;;6.97;100.00
60307;BME280;46155;52.364;6.580;2024-02-23T14:55:00;98895.88;;;6.92;100.00
60307;BME280;46155;52.364;6.580;2024-02-23T14:57:26;98902.00;;;6.92;100.00
60307;BME280;46155;52.364;6.580;2024-02-23T14:59:51;98898.53;;;6.93;100.00
60307;BME280;46155;52.364;6.580;2024-02-23T15:02:22;98904.81;;;6.97;100.00
60307;BME280;46155;52.364;6.580;2024-02-23T15:04:49;98904.81;;;6.97;100.00
60307;BME280;46155;52.364;6.580;2024-02-23T15:07:15;98898.78;;;6.98;100.00
60307;BME280;46155;52.364;6.580;2024-02-23T15:09:40;98906.72;;;7.01;100.00
60307;BME280;46155;52.364;6.580;2024-02-23T15:12:06;98910.50;;;7.07;100.00
60307;BME280;46155;52.364;6.580;2024-02-23T15:14:31;98904.44;;;7.09;100.00
60307;BME280;46155;52.364;6.580;2024-02-23T15:16:56;98911.53;;;7.11;100.00
60307;BME280;46155;52.364;6.580;2024-02-23T15:19:22;98910.09;;;7.18;100.00
60307;BME280;46155;52.364;6.580;2024-02-23T15:21:52;98915.63;;;7.26;100.00
60307;BME280;46155;52.364;6.580;2024-02-23T15:24:18;98915.63;;;7.26;100.00
60307;BME280;46155;52.364;6.580;2024-02-23T15:26:45;98914.81;;;7.27;100.00
60307;BME280;46155;52.364;6.580;2024-02-23T15:29:10;98909.59;;;7.27;100.00
60307;BME280;46155;52.364;6.580;2024-02-23T15:31:35;98918.09;;;7.22;100.00
60307;BME280;46155;52.364;6.580;2024-02-23T15:34:01;98921.53;;;7.21;100.00
60307;BME280;46155;52.364;6.580;2024-02-23T15:36:27;98928.69;;;7.26;100.00
60307;BME280;46155;52.364;6.580;2024-02-23T15:38:52;98923.19;;;7.19;100.00
60307;BME280;46155;52.364;6.580;2024-02-23T15:41:23;98917.22;;;7.22;100.00
60307;BME280;46155;52.364;6.580;2024-02-23T15:43:49;98923.31;;;7.22;100.00
60307;BME280;46155;52.364;6.580;2024-02-23T15:46:14;98920.59;;;7.19;100.00
60307;BME280;46155;52.364;6.580;2024-02-23T15:48:39;98918.09;;;7.22;100.00
60307;BME280;46155;52.364;6.580;2024-02-23T15:51:05;98936.50;;;7.26;100.00
60307;BME280;46155;52.364;6.580;2024-02-23T15:53:30;98933.50;;;7.16;100.00
60307;BME280;46155;52.364;6.580;2024-02-23T15:55:55;98931.72;;;7.15;100.00
60307;BME280;46155;52.364;6.580;2024-02-23T15:58:20;98940.91;;;7.07;100.00
60307;BME280;46155;52.364;6.580;2024-02-23T16:00:46;98939.97;;;7.05;100.00
60307;BME280;46155;52.364;6.580;2024-02-23T16:03:11;98952.94;;;7.03;100.00
60307;BME280;46155;52.364;6.580;2024-02-23T16:05:37;98942.69;;;6.88;100.00
60307;BME280;46155;52.364;6.580;2024-02-23T16:08:02;98953.75;;;6.83;100.00
60307;BME280;46155;52.364;6.580;2024-02-23T16:10:29;98942.47;;;6.64;100.00
60307;BME280;46155;52.364;6.580;2024-02-23T16:12:55;98946.66;;;6.61;100.00
60307;BME280;46155;52.364;6.580;2024-02-23T16:15:23;98953.97;;;6.50;100.00
60307;BME280;46155;52.364;6.580;2024-02-23T16:17:48;98960.06;;;6.50;100.00
60307;BME280;46155;52.364;6.580;2024-02-23T16:20:14;98960.84;;;6.48;100.00
60307;BME280;46155;52.364;6.580;2024-02-23T16:22:43;98958.91;;;6.44;100.00
60307;BME280;46155;52.364;6.580;2024-02-23T16:25:08;98961.13;;;6.36;100.00
60307;BME280;46155;52.364;6.580;2024-02-23T16:27:35;98967.84;;;6.31;100.00
60307;BME280;46155;52.364;6.580;2024-02-23T16:30:00;98963.31;;;6.27;100.00
60307;BME280;46155;52.364;6.580;2024-02-23T16:32:25;98972.06;;;6.29;100.00
60307;BME280;46155;52.364;6.580;2024-02-23T16:34:51;98972.22;;;6.32;100.00
60307;BME280;46155;52.364;6.580;2024-02-23T16:37:16;98976.69;;;6.34;100.00
60307;BME280;46155;52.364;6.580;2024-02-23T16:39:41;98980.19;;;6.35;100.00
60307;BME280;46155;52.364;6.580;2024-02-23T16:42:07;98981.75;;;6.31;100.00
60307;BME280;46155;52.364;6.580;2024-02-23T16:44:32;98973.06;;;6.31;100.00
60307;BME280;46155;52.364;6.580;2024-02-23T16:46:58;98983.50;;;6.31;100.00
60307;BME280;46155;52.364;6.580;2024-02-23T16:49:23;98992.19;;;6.31;100.00
60307;BME280;46155;52.364;6.580;2024-02-23T16:51:48;98990.31;;;6.29;100.00
60307;BME280;46155;52.364;6.580;2024-02-23T16:54:13;98987.78;;;6.30;100.00
60307;BME280;46155;52.364;6.580;2024-02-23T16:56:41;98985.25;;;6.32;100.00
60307;BME280;46155;52.364;6.580;2024-02-23T16:59:07;98987.78;;;6.30;100.00
60307;BME280;46155;52.364;6.580;2024-02-23T17:01:32;98986.00;;;6.29;100.00